Time;durP1;ratioP1;P1;durP2;ratioP2;P2;SDS_P1;SDS_P2;PMS_P1;PMS_P2;Temp;Humidity;BMP_temperature;BMP_pressure;BME280_temperature;BME280_humidity;BME280_pressure;Samples;Min_cycle;Max_cycle;Signal;HPM_P1;HPM_P2
2021/09/20 00:00:05;;;;;;;2.47;2.03;;;13.50;99.90;;;;;;4998933;28;20225;-61
2021/09/20 00:02:33;;;;;;;4.50;2.30;;;13.60;99.90;;;;;;4993820;28;20230;-61
2021/09/20 00:05:02;;;;;;;3.50;2.33;;;13.70;99.90;;;;;;4992138;28;20242;-61
2021/09/20 00:07:30;;;;;;;3.30;2.23;;;13.70;99.90;;;;;;4995478;28;20272;-62
2021/09/20 00:09:59;;;;;;;4.33;2.37;;;13.70;99.90;;;;;;4994224;28;20316;-62
2021/09/20 00:12:28;;;;;;;4.20;2.63;;;13.70;99.90;;;;;;4997987;28;20681;-61
2021/09/20 00:14:56;;;;;;;3.73;2.37;;;13.60;99.90;;;;;;4993045;28;20328;-61
2021/09/20 00:17:24;;;;;;;5.43;2.67;;;13.60;99.90;;;;;;4993869;28;20262;-62
2021/09/20 00:19:52;;;;;;;2.67;2.47;;;13.60;99.90;;;;;;4994926;28;20267;-61
2021/09/20 00:22:20;;;;;;;3.50;2.60;;;13.70;99.90;;;;;;4994341;28;20594;-62
2021/09/20 00:24:48;;;;;;;3.60;2.30;;;13.60;99.90;;;;;;4992448;28;20332;-62
2021/09/20 00:27:17;;;;;;;4.37;2.63;;;13.60;99.90;;;;;;4990965;28;20284;-61
2021/09/20 00:29:46;;;;;;;5.60;2.57;;;13.60;99.90;;;;;;5009276;28;20827;-61
2021/09/20 00:32:14;;;;;;;2.97;2.37;;;13.60;99.90;;;;;;4994049;28;20236;-61
2021/09/20 00:34:43;;;;;;;3.37;2.50;;;13.60;99.90;;;;;;4983760;28;20245;-61
2021/09/20 00:37:12;;;;;;;3.80;2.30;;;13.60;99.90;;;;;;4997731;28;20255;-62
2021/09/20 00:39:40;;;;;;;4.97;2.57;;;13.60;99.90;;;;;;4987446;28;20309;-61
2021/09/20 00:42:08;;;;;;;3.50;2.50;;;13.60;99.90;;;;;;4984223;28;20350;-61
2021/09/20 00:44:38;;;;;;;4.67;2.33;;;13.60;99.90;;;;;;4995973;28;20670;-62
2021/09/20 00:47:06;;;;;;;3.10;2.23;;;13.70;99.90;;;;;;4993579;28;20243;-61
2021/09/20 00:49:34;;;;;;;4.93;2.50;;;13.70;99.90;;;;;;4992614;28;20256;-62
2021/09/20 00:52:02;;;;;;;4.80;2.40;;;13.60;99.90;;;;;;4988065;28;20267;-62
2021/09/20 00:54:31;;;;;;;3.43;2.40;;;13.50;99.90;;;;;;4994740;28;20237;-61
2021/09/20 00:57:00;;;;;;;3.70;2.40;;;13.50;99.90;;;;;;4995741;28;20316;-61
2021/09/20 00:59:28;;;;;;;3.60;2.10;;;13.60;99.90;;;;;;4993511;28;20225;-61
2021/09/20 01:01:57;;;;;;;2.57;2.33;;;13.60;99.90;;;;;;4986740;28;20321;-62
2021/09/20 01:04:26;;;;;;;3.43;2.57;;;13.60;99.90;;;;;;4996922;28;20241;-62
2021/09/20 01:06:54;;;;;;;5.00;2.50;;;13.50;99.90;;;;;;4996489;28;20701;-61
2021/09/20 01:09:24;;;;;;;4.53;2.50;;;13.50;99.90;;;;;;4991611;28;20345;-62
2021/09/20 01:11:53;;;;;;;3.50;2.43;;;13.50;99.90;;;;;;4987813;28;20237;-61
2021/09/20 01:14:22;;;;;;;2.57;2.30;;;13.40;99.90;;;;;;4998310;28;20247;-61
2021/09/20 01:16:52;;;;;;;3.07;2.40;;;13.50;99.90;;;;;;4996469;28;20245;-61
2021/09/20 01:19:22;;;;;;;4.00;2.23;;;13.50;99.90;;;;;;4996263;28;20244;-61
2021/09/20 01:21:50;;;;;;;4.87;2.17;;;13.50;99.90;;;;;;4989874;28;20261;-61
2021/09/20 01:24:19;;;;;;;3.33;2.80;;;13.50;99.90;;;;;;4988400;28;20229;-62
2021/09/20 01:26:48;;;;;;;3.70;2.50;;;13.50;99.90;;;;;;4996325;28;20264;-61
2021/09/20 01:29:16;;;;;;;3.23;2.23;;;13.50;99.90;;;;;;4985213;28;20724;-62
2021/09/20 01:31:44;;;;;;;3.47;2.30;;;13.60;99.90;;;;;;4998713;28;20358;-62
2021/09/20 01:34:12;;;;;;;3.33;2.40;;;13.70;99.90;;;;;;4995161;28;20508;-62
2021/09/20 01:36:40;;;;;;;4.37;2.60;;;13.70;99.90;;;;;;4988167;28;20241;-62
2021/09/20 01:39:16;;;;;;;3.40;2.40;;;13.60;99.90;;;;;;4997401;28;20586;-63
2021/09/20 01:41:47;;;;;;;4.10;2.53;;;13.50;99.90;;;;;;4995666;28;20720;-61
2021/09/20 01:44:15;;;;;;;3.80;2.60;;;13.40;99.90;;;;;;4997386;28;20257;-62
2021/09/20 01:46:44;;;;;;;5.80;2.23;;;13.30;99.90;;;;;;4999379;28;20239;-61
2021/09/20 01:49:13;;;;;;;4.13;2.63;;;13.30;99.90;;;;;;4994770;28;20630;-61
2021/09/20 01:51:42;;;;;;;3.07;2.30;;;13.30;99.90;;;;;;4999418;28;20240;-61
2021/09/20 01:54:11;;;;;;;3.07;2.57;;;13.40;99.90;;;;;;4999208;28;21379;-62
2021/09/20 01:56:41;;;;;;;4.30;2.57;;;13.50;99.90;;;;;;4990843;28;20244;-62
2021/09/20 01:59:10;;;;;;;4.53;2.33;;;13.50;99.90;;;;;;4995046;28;20589;-62
2021/09/20 02:01:38;;;;;;;4.50;2.27;;;13.40;99.90;;;;;;4995534;28;20280;-61
2021/09/20 02:04:07;;;;;;;4.03;2.40;;;13.30;99.90;;;;;;4995793;28;20268;-62
2021/09/20 02:06:35;;;;;;;3.33;2.13;;;13.40;99.90;;;;;;4991544;28;20236;-62
2021/09/20 02:09:06;;;;;;;4.00;2.10;;;13.40;99.90;;;;;;4996654;28;20614;-62
2021/09/20 02:11:34;;;;;;;3.10;2.23;;;13.40;99.90;;;;;;5000813;28;20749;-61
2021/09/20 02:14:02;;;;;;;4.57;2.30;;;13.40;99.90;;;;;;4994388;28;20273;-61
2021/09/20 02:16:32;;;;;;;2.13;1.93;;;13.40;99.90;;;;;;4998132;28;20260;-62
2021/09/20 02:19:00;;;;;;;2.90;2.10;;;13.50;99.90;;;;;;4992236;28;20757;-62
2021/09/20 02:21:28;;;;;;;3.17;2.13;;;13.50;99.90;;;;;;4982556;28;20644;-61
2021/09/20 02:23:57;;;;;;;2.70;2.10;;;13.50;99.90;;;;;;4986276;28;20251;-61
2021/09/20 02:26:25;;;;;;;2.23;2.03;;;13.50;99.90;;;;;;5000473;28;20600;-61
2021/09/20 02:28:53;;;;;;;2.83;2.50;;;13.50;99.90;;;;;;4997413;28;20649;-62
2021/09/20 02:31:21;;;;;;;3.90;2.27;;;13.50;99.90;;;;;;5001959;28;20241;-61
2021/09/20 02:33:51;;;;;;;3.80;2.30;;;13.50;99.90;;;;;;4988474;28;20245;-61
2021/09/20 02:36:19;;;;;;;2.77;2.10;;;13.40;99.90;;;;;;4993406;28;20237;-63
2021/09/20 02:38:47;;;;;;;3.23;2.40;;;13.30;99.90;;;;;;4991207;28;20247;-62
2021/09/20 02:41:16;;;;;;;3.43;2.53;;;13.20;99.90;;;;;;4991946;28;20260;-62
2021/09/20 02:43:45;;;;;;;3.60;2.30;;;13.30;99.90;;;;;;4989614;28;20238;-62
2021/09/20 02:46:13;;;;;;;2.50;2.27;;;13.30;99.90;;;;;;4989329;28;20240;-62
2021/09/20 02:48:41;;;;;;;5.53;2.10;;;13.40;99.90;;;;;;4993536;28;20249;-61
2021/09/20 02:51:11;;;;;;;5.07;2.30;;;13.30;99.90;;;;;;4991141;28;20229;-61
2021/09/20 02:53:39;;;;;;;3.27;2.20;;;13.30;99.90;;;;;;4995307;28;20652;-62
2021/09/20 02:56:08;;;;;;;3.10;2.37;;;13.30;99.90;;;;;;4995809;28;20323;-62
2021/09/20 02:58:36;;;;;;;4.40;2.43;;;13.30;99.90;;;;;;4995901;28;20296;-62
2021/09/20 03:01:04;;;;;;;4.03;2.00;;;13.20;99.90;;;;;;4988871;28;20241;-62
2021/09/20 03:03:33;;;;;;;2.67;2.47;;;13.20;99.90;;;;;;4982390;28;20257;-62
2021/09/20 03:06:01;;;;;;;3.13;2.37;;;13.10;99.90;;;;;;4997104;28;20595;-62
2021/09/20 03:08:30;;;;;;;2.60;2.37;;;13.00;99.90;;;;;;4988513;28;20236;-62
2021/09/20 03:11:01;;;;;;;3.40;2.40;;;13.20;99.90;;;;;;4997612;28;20321;-62
2021/09/20 03:13:29;;;;;;;3.20;2.43;;;13.20;99.90;;;;;;4984431;28;20313;-62
2021/09/20 03:15:57;;;;;;;3.00;2.40;;;13.20;99.90;;;;;;4991896;28;20242;-61
2021/09/20 03:18:25;;;;;;;3.63;2.30;;;13.00;99.90;;;;;;4995700;28;20469;-62
2021/09/20 03:20:53;;;;;;;3.17;2.40;;;13.10;99.90;;;;;;4992301;28;20237;-62
2021/09/20 03:23:21;;;;;;;2.87;2.57;;;13.30;99.90;;;;;;4988969;28;20241;-61
2021/09/20 03:25:51;;;;;;;5.00;2.50;;;13.30;99.90;;;;;;4992639;28;20653;-62
2021/09/20 03:28:19;;;;;;;3.03;2.50;;;13.20;99.90;;;;;;4996468;28;20245;-62
2021/09/20 03:30:47;;;;;;;4.43;2.50;;;13.10;99.90;;;;;;4999056;28;20244;-61
2021/09/20 03:33:15;;;;;;;2.87;2.60;;;13.10;99.90;;;;;;4987848;28;20252;-62
2021/09/20 03:35:43;;;;;;;3.40;2.00;;;13.10;99.90;;;;;;4946294;28;1155107;-61
2021/09/20 03:38:11;;;;;;;3.20;2.40;;;13.10;99.90;;;;;;4988659;28;20635;-61
2021/09/20 03:40:40;;;;;;;3.93;2.30;;;13.20;99.90;;;;;;4997295;28;20621;-62
2021/09/20 03:43:09;;;;;;;2.53;2.33;;;13.20;99.90;;;;;;4993511;28;20260;-61
2021/09/20 03:45:37;;;;;;;3.27;2.17;;;13.10;99.90;;;;;;4992569;28;20601;-62
2021/09/20 03:48:08;;;;;;;3.47;2.30;;;13.20;99.90;;;;;;4989150;28;20273;-62
2021/09/20 03:50:36;;;;;;;3.60;2.00;;;13.20;99.90;;;;;;4992168;28;20236;-62
2021/09/20 03:53:04;;;;;;;2.93;2.50;;;13.20;99.90;;;;;;4992098;28;20237;-62
2021/09/20 03:55:32;;;;;;;2.40;2.20;;;13.20;99.90;;;;;;5000315;28;20318;-62
2021/09/20 03:58:00;;;;;;;3.70;2.50;;;13.20;99.90;;;;;;4984903;28;20236;-61
2021/09/20 04:00:30;;;;;;;2.80;2.50;;;13.30;99.90;;;;;;4986584;28;20336;-62
2021/09/20 04:02:58;;;;;;;3.80;2.43;;;13.20;99.90;;;;;;4992391;28;20613;-61
2021/09/20 04:05:26;;;;;;;2.83;2.47;;;13.20;99.90;;;;;;4994835;28;20236;-62
2021/09/20 04:07:54;;;;;;;3.20;2.10;;;13.30;99.90;;;;;;4997614;28;20234;-62
2021/09/20 04:10:22;;;;;;;3.27;2.47;;;13.40;99.90;;;;;;4993670;28;20328;-62
2021/09/20 04:12:51;;;;;;;3.63;2.07;;;13.40;99.90;;;;;;4999334;28;20240;-62
2021/09/20 04:15:19;;;;;;;3.70;2.33;;;13.30;99.90;;;;;;4993144;28;20257;-62
2021/09/20 04:17:48;;;;;;;5.03;2.50;;;13.40;99.90;;;;;;4992606;28;20253;-62
2021/09/20 04:20:16;;;;;;;3.43;2.40;;;13.30;99.90;;;;;;4995700;28;20246;-61
2021/09/20 04:22:44;;;;;;;2.67;2.20;;;13.10;99.90;;;;;;4997786;28;20242;-62
2021/09/20 04:25:13;;;;;;;2.53;2.30;;;13.20;99.90;;;;;;4995282;28;20237;-62
2021/09/20 04:27:41;;;;;;;3.50;2.57;;;13.20;99.90;;;;;;4989369;28;20264;-62
2021/09/20 04:30:12;;;;;;;4.53;2.23;;;13.10;99.90;;;;;;4993467;28;20248;-62
2021/09/20 04:32:40;;;;;;;3.23;2.50;;;13.10;99.90;;;;;;4994315;28;20605;-62
2021/09/20 04:35:10;;;;;;;4.43;2.53;;;13.10;99.90;;;;;;4991187;28;20229;-62
2021/09/20 04:37:39;;;;;;;4.43;3.00;;;13.10;99.90;;;;;;4987874;28;20364;-61
2021/09/20 04:40:08;;;;;;;3.63;2.57;;;13.10;99.90;;;;;;4992554;28;20244;-62
2021/09/20 04:42:36;;;;;;;3.10;2.10;;;13.00;99.90;;;;;;4995037;28;20232;-61
2021/09/20 04:45:06;;;;;;;4.93;2.90;;;13.00;99.90;;;;;;4990851;28;20233;-62
2021/09/20 04:47:34;;;;;;;4.93;2.70;;;12.90;99.90;;;;;;4995191;28;20240;-62
2021/09/20 04:50:03;;;;;;;4.80;2.97;;;12.90;99.90;;;;;;4986051;28;20320;-62
2021/09/20 04:52:32;;;;;;;8.27;3.63;;;12.90;99.90;;;;;;4979804;28;20237;-62
2021/09/20 04:55:00;;;;;;;4.37;2.67;;;12.90;99.90;;;;;;4983121;28;20237;-62
2021/09/20 04:57:29;;;;;;;3.87;2.83;;;12.90;99.90;;;;;;4984799;28;21497;-62
2021/09/20 04:59:57;;;;;;;3.83;2.50;;;12.80;99.90;;;;;;4984308;28;20245;-61
2021/09/20 05:02:25;;;;;;;4.70;2.73;;;12.80;99.90;;;;;;4986246;28;20256;-62
2021/09/20 05:04:54;;;;;;;2.63;2.43;;;12.70;99.90;;;;;;4985690;28;20242;-61
2021/09/20 05:07:26;;;;;;;3.87;2.70;;;12.80;99.90;;;;;;4991639;28;20243;-62
2021/09/20 05:09:56;;;;;;;3.00;2.70;;;12.80;99.90;;;;;;4992726;28;20233;-61
2021/09/20 05:12:24;;;;;;;3.60;2.73;;;12.80;99.90;;;;;;4990396;28;20280;-62
2021/09/20 05:14:52;;;;;;;6.70;2.97;;;12.90;99.90;;;;;;4981723;28;20256;-62
2021/09/20 05:17:22;;;;;;;5.60;3.10;;;12.90;99.90;;;;;;4987125;28;20245;-63
2021/09/20 05:19:50;;;;;;;4.37;2.37;;;12.80;99.90;;;;;;4982710;28;20499;-62
2021/09/20 05:22:18;;;;;;;6.10;2.93;;;12.80;99.90;;;;;;4984040;28;20252;-62
2021/09/20 05:24:46;;;;;;;5.27;2.80;;;12.80;99.90;;;;;;4985819;28;20238;-61
2021/09/20 05:27:16;;;;;;;3.17;2.70;;;12.70;99.90;;;;;;4983274;28;20283;-62
2021/09/20 05:29:44;;;;;;;4.60;3.10;;;12.70;99.90;;;;;;4989168;28;20777;-62
2021/09/20 05:32:13;;;;;;;3.23;2.60;;;12.80;99.90;;;;;;4990272;28;20276;-62
2021/09/20 05:34:41;;;;;;;3.90;2.47;;;12.90;99.90;;;;;;4985958;28;20740;-62
2021/09/20 05:37:09;;;;;;;5.30;2.63;;;13.00;99.90;;;;;;4996129;28;20312;-62
2021/09/20 05:39:37;;;;;;;6.40;2.80;;;13.00;99.90;;;;;;4988364;28;20245;-62
2021/09/20 05:42:05;;;;;;;5.00;2.70;;;12.80;99.90;;;;;;4987748;28;20344;-62
2021/09/20 05:44:35;;;;;;;4.97;2.90;;;13.00;99.90;;;;;;4984331;28;20337;-62
2021/09/20 05:47:03;;;;;;;5.03;2.80;;;13.00;99.90;;;;;;4990572;28;20267;-62
2021/09/20 05:49:31;;;;;;;5.73;3.13;;;12.90;99.90;;;;;;4980426;28;20295;-62
2021/09/20 05:51:59;;;;;;;5.03;2.47;;;12.90;99.90;;;;;;4988302;28;20232;-62
2021/09/20 05:54:27;;;;;;;5.17;2.97;;;12.80;99.90;;;;;;4981443;28;20606;-62
2021/09/20 05:56:56;;;;;;;4.47;2.80;;;12.80;99.90;;;;;;4994319;28;20230;-62
2021/09/20 05:59:24;;;;;;;3.57;2.50;;;12.80;99.90;;;;;;4984598;28;20371;-62
2021/09/20 06:01:53;;;;;;;3.03;2.83;;;12.80;99.90;;;;;;4996134;28;20232;-62
2021/09/20 06:04:23;;;;;;;3.73;2.50;;;12.80;99.90;;;;;;4991659;28;20248;-62
2021/09/20 06:06:51;;;;;;;2.90;2.60;;;12.80;99.90;;;;;;4991044;28;20275;-62
2021/09/20 06:09:19;;;;;;;3.90;2.80;;;12.80;99.90;;;;;;4986802;28;20311;-62
2021/09/20 06:11:47;;;;;;;4.07;2.33;;;12.80;99.90;;;;;;4983459;28;20252;-62
2021/09/20 06:14:15;;;;;;;3.20;2.60;;;12.80;99.90;;;;;;4986535;28;20959;-62
2021/09/20 06:16:44;;;;;;;3.13;2.60;;;12.80;99.90;;;;;;4983052;28;20245;-62
2021/09/20 06:19:13;;;;;;;5.40;2.73;;;12.80;99.90;;;;;;4986316;28;20312;-61
2021/09/20 06:21:41;;;;;;;3.47;2.77;;;12.80;99.90;;;;;;4986639;28;20714;-62
2021/09/20 06:24:09;;;;;;;4.00;2.80;;;12.90;99.90;;;;;;4987261;28;20541;-62
2021/09/20 06:26:38;;;;;;;3.83;2.90;;;12.90;99.90;;;;;;4989012;28;20241;-62
2021/09/20 06:29:06;;;;;;;3.63;2.70;;;12.90;99.90;;;;;;4988117;28;20737;-61
2021/09/20 06:31:35;;;;;;;4.60;2.97;;;12.90;99.90;;;;;;4987710;28;20749;-61
2021/09/20 06:34:03;;;;;;;2.80;2.50;;;12.90;99.90;;;;;;4987595;28;20238;-62
2021/09/20 06:36:33;;;;;;;4.63;2.83;;;13.00;99.90;;;;;;4987550;28;20237;-62
2021/09/20 06:39:02;;;;;;;3.37;2.67;;;13.00;99.90;;;;;;4993484;28;20235;-62
2021/09/20 06:41:30;;;;;;;5.30;2.87;;;13.00;99.90;;;;;;4983124;28;20241;-62
2021/09/20 06:43:58;;;;;;;3.53;2.57;;;13.00;99.90;;;;;;4992051;28;20788;-62
2021/09/20 06:46:26;;;;;;;5.20;2.87;;;13.00;99.90;;;;;;4994633;28;20291;-62
2021/09/20 06:48:55;;;;;;;4.83;2.77;;;13.00;99.90;;;;;;4988503;28;20237;-62
2021/09/20 06:51:23;;;;;;;4.27;2.80;;;13.10;99.90;;;;;;4985992;28;20254;-61
2021/09/20 06:53:53;;;;;;;6.83;2.80;;;13.10;99.90;;;;;;4990118;28;20696;-62
2021/09/20 06:56:21;;;;;;;3.27;2.73;;;13.10;99.90;;;;;;4990682;28;20710;-61
2021/09/20 06:58:49;;;;;;;3.30;2.67;;;13.10;99.90;;;;;;4994119;28;20328;-62
2021/09/20 07:01:17;;;;;;;5.43;2.90;;;13.10;99.90;;;;;;4991165;28;20761;-62
2021/09/20 07:03:46;;;;;;;4.03;2.70;;;13.10;99.90;;;;;;4995769;28;20714;-62
2021/09/20 07:06:15;;;;;;;4.10;2.97;;;13.20;99.90;;;;;;4997100;28;20451;-62
2021/09/20 07:08:43;;;;;;;3.47;3.10;;;13.20;99.90;;;;;;4991360;28;20233;-62
2021/09/20 07:11:12;;;;;;;4.53;2.93;;;13.20;99.90;;;;;;4994350;28;20355;-62
2021/09/20 07:13:41;;;;;;;3.33;2.80;;;13.20;99.90;;;;;;4990801;28;20352;-62
2021/09/20 07:16:09;;;;;;;4.57;2.70;;;13.30;99.90;;;;;;4991091;28;20725;-62
2021/09/20 07:18:37;;;;;;;5.33;2.80;;;13.30;99.90;;;;;;4996235;28;20247;-62
2021/09/20 07:21:05;;;;;;;5.67;2.77;;;13.40;99.90;;;;;;4989732;28;20242;-62
2021/09/20 07:23:34;;;;;;;5.17;3.03;;;13.50;99.90;;;;;;4995246;28;20226;-62
2021/09/20 07:26:02;;;;;;;3.40;2.77;;;13.50;99.90;;;;;;5004831;28;20238;-62
2021/09/20 07:28:32;;;;;;;3.80;2.60;;;13.60;99.90;;;;;;4989148;28;20321;-61
2021/09/20 07:31:00;;;;;;;4.17;2.80;;;13.60;99.90;;;;;;4998473;28;20237;-62
2021/09/20 07:33:28;;;;;;;4.20;3.00;;;13.60;99.90;;;;;;5000136;28;20269;-61
2021/09/20 07:35:56;;;;;;;7.00;3.10;;;13.60;99.90;;;;;;4998303;28;20241;-62
2021/09/20 07:38:25;;;;;;;3.47;3.07;;;13.70;99.90;;;;;;4994188;28;20244;-62
2021/09/20 07:40:53;;;;;;;5.00;3.30;;;13.80;99.90;;;;;;4993547;28;20237;-61
2021/09/20 07:43:21;;;;;;;5.23;3.40;;;13.80;99.90;;;;;;4991028;28;20291;-62
2021/09/20 07:45:51;;;;;;;4.10;3.50;;;13.80;99.90;;;;;;4996503;28;20250;-61
2021/09/20 07:48:19;;;;;;;4.07;3.30;;;13.90;99.90;;;;;;4998645;28;20696;-62
2021/09/20 07:50:52;;;;;;;4.20;3.13;;;13.90;99.90;;;;;;4991743;28;20313;-62
2021/09/20 07:53:21;;;;;;;4.10;3.50;;;13.90;99.90;;;;;;4987501;28;20245;-62
2021/09/20 07:55:49;;;;;;;5.13;3.60;;;13.90;99.90;;;;;;4983290;28;20776;-62
2021/09/20 07:58:17;;;;;;;4.53;3.33;;;14.00;99.90;;;;;;4991177;28;20239;-62
2021/09/20 08:00:45;;;;;;;3.47;3.07;;;14.10;99.90;;;;;;4991901;28;20236;-62
2021/09/20 08:03:15;;;;;;;3.80;2.73;;;14.20;99.90;;;;;;4992051;28;20245;-62
2021/09/20 08:05:45;;;;;;;5.87;2.90;;;14.20;99.90;;;;;;4981170;28;20287;-62
2021/09/20 08:08:13;;;;;;;3.43;3.07;;;14.20;99.90;;;;;;4990189;28;20553;-61
2021/09/20 08:10:41;;;;;;;3.53;2.97;;;14.20;99.90;;;;;;4984980;28;20744;-61
2021/09/20 08:13:09;;;;;;;3.73;3.03;;;14.30;99.90;;;;;;4993962;28;20297;-62
2021/09/20 08:15:38;;;;;;;5.63;3.27;;;14.40;99.90;;;;;;4984828;28;20579;-62
2021/09/20 08:18:07;;;;;;;4.83;3.13;;;14.40;99.90;;;;;;4997368;28;20237;-62
2021/09/20 08:20:37;;;;;;;3.40;2.50;;;14.40;99.90;;;;;;4992561;28;20238;-62
2021/09/20 08:23:05;;;;;;;3.97;2.80;;;14.50;99.90;;;;;;4991438;28;20242;-61
2021/09/20 08:25:34;;;;;;;3.43;2.80;;;14.50;99.90;;;;;;4983216;28;20237;-62
2021/09/20 08:28:03;;;;;;;3.00;2.67;;;14.60;99.90;;;;;;4982553;28;20241;-61
2021/09/20 08:30:32;;;;;;;4.63;2.90;;;14.70;99.90;;;;;;4990291;28;20237;-62
2021/09/20 08:33:00;;;;;;;4.10;3.00;;;14.80;99.90;;;;;;4987940;28;20876;-61
2021/09/20 08:35:29;;;;;;;3.43;2.93;;;14.80;99.90;;;;;;4981346;28;20722;-62
2021/09/20 08:37:59;;;;;;;3.33;2.70;;;14.70;99.90;;;;;;4990948;28;20833;-61
2021/09/20 08:40:28;;;;;;;3.47;2.63;;;14.70;99.90;;;;;;4989307;28;20230;-62
2021/09/20 08:42:58;;;;;;;3.27;2.70;;;14.80;99.90;;;;;;4994777;28;20345;-61
2021/09/20 08:45:28;;;;;;;4.70;2.93;;;14.90;99.90;;;;;;4984935;28;20807;-62
2021/09/20 08:47:58;;;;;;;3.17;2.40;;;15.10;99.90;;;;;;4993661;28;20866;-62
2021/09/20 08:50:29;;;;;;;8.00;2.97;;;15.10;99.90;;;;;;4994083;28;20257;-62
2021/09/20 08:52:59;;;;;;;3.43;2.70;;;15.00;99.90;;;;;;4994580;28;20257;-62
2021/09/20 08:55:27;;;;;;;4.97;3.10;;;15.00;99.90;;;;;;4995923;28;20288;-62
2021/09/20 08:57:56;;;;;;;3.00;2.70;;;15.00;99.90;;;;;;4989060;28;20252;-61
2021/09/20 09:00:24;;;;;;;3.37;2.87;;;15.00;99.90;;;;;;4990600;28;20234;-61
2021/09/20 09:02:53;;;;;;;3.43;2.73;;;15.10;99.90;;;;;;4995688;28;20230;-62
2021/09/20 09:05:23;;;;;;;3.63;2.93;;;15.10;99.90;;;;;;4992506;28;20249;-61
2021/09/20 09:07:55;;;;;;;3.83;2.90;;;15.30;99.90;;;;;;4990415;28;20237;-62
2021/09/20 09:10:26;;;;;;;5.03;3.03;;;15.30;99.90;;;;;;4995192;28;20352;-62
2021/09/20 09:12:56;;;;;;;4.13;2.87;;;15.40;99.90;;;;;;4990838;28;20633;-61
2021/09/20 09:15:26;;;;;;;3.70;2.30;;;15.50;99.90;;;;;;4989447;28;20238;-62
2021/09/20 09:17:57;;;;;;;5.10;2.70;;;15.70;99.90;;;;;;4992671;28;20410;-61
2021/09/20 09:20:27;;;;;;;5.83;2.77;;;15.70;99.90;;;;;;4992154;28;21025;-62
2021/09/20 09:23:00;;;;;;;3.17;2.40;;;15.60;99.90;;;;;;4992168;28;20244;-62
2021/09/20 09:25:36;;;;;;;3.93;2.67;;;15.70;99.90;;;;;;4980068;28;20679;-62
2021/09/20 09:28:14;;;;;;;3.13;2.20;;;15.80;99.90;;;;;;4987573;28;20423;-61
2021/09/20 09:30:44;;;;;;;4.90;2.80;;;15.90;99.90;;;;;;5007766;28;21632;-62
2021/09/20 09:33:14;;;;;;;4.50;2.60;;;16.00;99.90;;;;;;4988657;28;20245;-62
2021/09/20 09:35:45;;;;;;;3.57;2.93;;;16.00;99.90;;;;;;4987352;28;20320;-61
2021/09/20 09:38:14;;;;;;;4.20;2.50;;;15.90;99.90;;;;;;4990526;28;20307;-61
2021/09/20 09:40:49;;;;;;;2.70;2.00;;;15.90;99.90;;;;;;4992649;28;20576;-61
2021/09/20 09:43:25;;;;;;;2.77;2.40;;;16.10;99.90;;;;;;4990138;28;20339;-62
2021/09/20 09:45:55;;;;;;;3.13;2.37;;;16.00;99.90;;;;;;4987021;28;20473;-61
2021/09/20 09:48:26;;;;;;;2.97;2.37;;;16.20;99.90;;;;;;4989035;28;20241;-62
2021/09/20 09:50:55;;;;;;;2.50;2.13;;;16.20;99.90;;;;;;4985309;28;20323;-62
2021/09/20 09:53:27;;;;;;;3.70;2.40;;;16.20;99.90;;;;;;4986434;28;20238;-62
2021/09/20 09:55:59;;;;;;;2.40;2.20;;;16.20;99.90;;;;;;4990555;28;20312;-61
2021/09/20 09:58:38;;;;;;;3.81;2.40;;;16.20;99.90;;;;;;4903440;28;10000980;-62
2021/09/20 10:01:14;;;;;;;3.30;2.55;;;16.10;99.90;;;;;;1371944;28;10001999;-62
2021/09/20 10:04:05;;;;;;;2.53;2.33;;;16.10;99.90;;;;;;4984317;28;20248;-62
2021/09/20 10:06:53;;;;;;;3.03;2.00;;;16.20;99.90;;;;;;4984471;28;20316;-62
2021/09/20 10:09:23;;;;;;;2.70;2.13;;;16.20;99.90;;;;;;4992050;28;20269;-61
2021/09/20 10:11:54;;;;;;;3.07;1.90;;;16.30;99.90;;;;;;4998291;28;20233;-62
2021/09/20 10:14:23;;;;;;;3.47;1.87;;;16.30;99.90;;;;;;4994201;28;20238;-61
2021/09/20 10:16:54;;;;;;;2.77;2.03;;;16.50;99.90;;;;;;4989614;28;20232;-61
2021/09/20 10:19:23;;;;;;;3.63;2.23;;;16.70;99.90;;;;;;5001021;28;20685;-62
2021/09/20 10:21:52;;;;;;;2.57;2.30;;;16.70;99.90;;;;;;4992325;28;20590;-61
2021/09/20 10:24:21;;;;;;;3.47;2.20;;;16.90;99.90;;;;;;4994819;28;20269;-61
2021/09/20 10:26:54;;;;;;;2.83;2.00;;;16.90;99.90;;;;;;4991410;28;20772;-61
2021/09/20 10:29:23;;;;;;;2.87;2.40;;;17.00;99.90;;;;;;4993808;28;20309;-61
2021/09/20 10:31:52;;;;;;;2.27;2.07;;;16.90;99.90;;;;;;4996769;28;20712;-62
2021/09/20 10:34:29;;;;;;;2.80;2.13;;;16.70;99.90;;;;;;4985318;28;20319;-62
2021/09/20 10:37:10;;;;;;;2.43;1.90;;;16.70;99.90;;;;;;4986517;28;20242;-62
2021/09/20 10:40:04;;;;;;;2.20;1.90;;;16.80;99.90;;;;;;4980207;28;20239;-61
2021/09/20 10:43:07;;;;;;;4.50;3.13;;;16.70;99.90;;;;;;4980531;28;20608;-62
2021/09/20 10:45:43;;;;;;;3.77;2.30;;;16.70;99.90;;;;;;4985586;28;20336;-62
2021/09/20 10:48:37;;;;;;;4.40;3.10;;;16.80;99.90;;;;;;4982956;28;20725;-62
2021/09/20 10:51:23;;;;;;;4.67;2.63;;;16.70;99.90;;;;;;4975749;28;20284;-62
2021/09/20 10:54:13;;;;;;;3.37;2.40;;;16.40;99.90;;;;;;4989860;28;20480;-62
2021/09/20 10:56:42;;;;;;;2.80;2.20;;;16.40;99.90;;;;;;4996233;28;20324;-61
2021/09/20 10:59:20;;;;;;;2.40;2.20;;;16.50;99.90;;;;;;4982720;28;20247;-61
2021/09/20 11:02:16;;;;;;;3.63;2.50;;;16.40;99.90;;;;;;4989137;28;20300;-62
2021/09/20 11:04:45;;;;;;;3.53;2.53;;;16.40;99.90;;;;;;4983304;28;20584;-61
2021/09/20 11:07:22;;;;;;;3.23;2.30;;;16.50;99.90;;;;;;4987860;28;20244;-62
2021/09/20 11:10:03;;;;;;;2.80;2.20;;;16.70;99.90;;;;;;4988338;28;20295;-61
2021/09/20 11:12:37;;;;;;;3.33;2.73;;;16.70;99.90;;;;;;4988053;28;20738;-61
2021/09/20 11:15:15;;;;;;;3.53;2.80;;;16.60;99.90;;;;;;4980813;28;20613;-62
2021/09/20 11:17:46;;;;;;;3.23;2.90;;;16.40;99.90;;;;;;4988549;28;20319;-61
2021/09/20 11:20:39;;;;;;;3.53;2.73;;;16.30;99.90;;;;;;4984610;28;20247;-62
2021/09/20 11:23:23;;;;;;;2.93;2.50;;;16.40;99.90;;;;;;4989297;28;20284;-62
2021/09/20 11:26:15;;;;;;;5.80;2.50;;;16.50;99.90;;;;;;5000245;28;20229;-61
2021/09/20 11:28:50;;;;;;;3.50;2.43;;;16.50;99.90;;;;;;4992122;28;20297;-62
2021/09/20 11:31:27;;;;;;;2.73;2.40;;;16.60;99.90;;;;;;4988644;28;20245;-61
2021/09/20 11:33:55;;;;;;;2.90;2.60;;;16.50;99.90;;;;;;4993263;28;20603;-62
2021/09/20 11:36:28;;;;;;;2.70;2.50;;;16.50;99.90;;;;;;4986143;28;20334;-61
2021/09/20 11:39:16;;;;;;;2.70;2.33;;;16.40;99.90;;;;;;4988873;28;20231;-62
2021/09/20 11:41:46;;;;;;;4.53;2.80;;;16.40;99.90;;;;;;4981501;28;20734;-62
2021/09/20 11:44:15;;;;;;;3.70;2.33;;;16.40;99.90;;;;;;4993571;28;20256;-62
2021/09/20 11:46:46;;;;;;;2.93;2.60;;;16.40;99.90;;;;;;4986940;28;20826;-62
2021/09/20 11:49:16;;;;;;;4.13;2.40;;;16.50;99.90;;;;;;5000717;28;20249;-62
2021/09/20 11:51:44;;;;;;;2.83;2.37;;;16.50;99.90;;;;;;4986648;28;20371;-61
2021/09/20 11:54:30;;;;;;;2.47;2.20;;;16.40;99.90;;;;;;4991487;28;20301;-62
2021/09/20 11:57:14;;;;;;;2.97;2.00;;;16.60;99.90;;;;;;4981250;28;20270;-62
2021/09/20 11:59:42;;;;;;;3.47;2.13;;;16.60;99.90;;;;;;4986296;28;20341;-62
2021/09/20 12:02:27;;;;;;;4.27;2.10;;;16.60;99.90;;;;;;4986532;28;20260;-62
2021/09/20 12:04:56;;;;;;;3.53;2.20;;;16.80;99.90;;;;;;4987969;28;20301;-62
2021/09/20 12:07:32;;;;;;;2.80;2.00;;;16.90;99.90;;;;;;4990408;28;20242;-62
2021/09/20 12:10:04;;;;;;;3.33;2.30;;;17.00;99.90;;;;;;4987358;28;20589;-62
2021/09/20 12:12:36;;;;;;;3.37;1.90;;;17.10;99.90;;;;;;4985468;28;20320;-62
2021/09/20 12:15:11;;;;;;;3.40;2.10;;;17.10;99.90;;;;;;4976462;28;20239;-62
2021/09/20 12:17:53;;;;;;;3.40;2.03;;;17.10;99.90;;;;;;4982787;28;20269;-62
2021/09/20 12:20:24;;;;;;;2.30;2.10;;;17.00;99.90;;;;;;4979195;28;20252;-62
2021/09/20 12:22:54;;;;;;;2.50;2.00;;;17.00;99.90;;;;;;4980025;28;20257;-62
2021/09/20 12:25:42;;;;;;;2.60;1.87;;;17.00;99.90;;;;;;4979335;28;20758;-62
2021/09/20 12:28:19;;;;;;;3.23;2.33;;;17.00;99.90;;;;;;4988475;28;20332;-62
2021/09/20 12:30:57;;;;;;;2.33;2.07;;;16.90;99.90;;;;;;4984596;28;20247;-62
2021/09/20 12:33:27;;;;;;;2.47;2.00;;;17.10;99.90;;;;;;4983185;28;20298;-62
2021/09/20 12:35:55;;;;;;;3.10;2.10;;;17.10;99.90;;;;;;4982950;28;20242;-62
2021/09/20 12:38:41;;;;;;;3.17;1.90;;;17.20;99.90;;;;;;4985912;28;20342;-62
2021/09/20 12:41:15;;;;;;;2.20;2.00;;;17.30;99.90;;;;;;4985517;28;20610;-61
2021/09/20 12:43:43;;;;;;;4.47;2.00;;;17.40;99.90;;;;;;4972875;28;20250;-62
2021/09/20 12:46:15;;;;;;;2.83;1.90;;;17.60;99.90;;;;;;4973588;28;20525;-62
2021/09/20 12:48:47;;;;;;;2.37;1.90;;;17.50;99.90;;;;;;4979852;28;20617;-62
2021/09/20 12:51:16;;;;;;;2.60;2.20;;;17.50;99.90;;;;;;4976172;28;20242;-62
2021/09/20 12:53:52;;;;;;;2.37;1.80;;;17.40;99.90;;;;;;4979360;28;20276;-62
2021/09/20 12:56:31;;;;;;;3.03;2.20;;;17.40;99.90;;;;;;4972955;28;20241;-61
2021/09/20 12:59:18;;;;;;;3.43;1.90;;;17.40;99.90;;;;;;4974839;28;20730;-62
2021/09/20 13:01:55;;;;;;;3.17;2.10;;;17.30;99.90;;;;;;4982726;28;20341;-62